createdAt,value
2018-09-19T00:02:02.871Z,96385.36
2018-09-19T00:04:31.498Z,96386.15
2018-09-19T00:07:00.299Z,96384.54
2018-09-19T00:09:28.925Z,96385.31
2018-09-19T00:11:57.501Z,96378.52
2018-09-19T00:14:26.037Z,96381.61
2018-09-19T00:16:54.732Z,96382.22
2018-09-19T00:19:23.409Z,96380.30
2018-09-19T00:21:53.496Z,96376.25
2018-09-19T00:24:22.139Z,96385.33
2018-09-19T00:26:50.700Z,96389.53
2018-09-19T00:29:19.332Z,96382.72
2018-09-19T00:31:48.188Z,96373.83
2018-09-19T00:34:16.837Z,96371.52
2018-09-19T00:36:45.392Z,96371.35
2018-09-19T00:39:14.155Z,96373.49
2018-09-19T00:41:42.821Z,96376.42
2018-09-19T00:44:11.396Z,96372.67
2018-09-19T00:46:39.955Z,96377.04
2018-09-19T00:49:08.525Z,96372.69
2018-09-19T00:51:37.158Z,96379.66
2018-09-19T00:54:05.734Z,96377.38
2018-09-19T00:56:34.525Z,96376.75
2018-09-19T00:59:03.331Z,96367.17
2018-09-19T01:01:32.024Z,96373.45
2018-09-19T01:04:00.607Z,96374.28
2018-09-19T01:06:29.243Z,96375.87
2018-09-19T01:08:58.056Z,96376.98
2018-09-19T01:11:26.637Z,96382.47
2018-09-19T01:13:55.258Z,96389.61
2018-09-19T01:16:24.225Z,96386.86
2018-09-19T01:18:52.803Z,96392.05
2018-09-19T01:21:21.337Z,96393.63
2018-09-19T01:23:49.878Z,96394.45
2018-09-19T01:26:18.548Z,96392.34
2018-09-19T01:28:47.097Z,96385.20
2018-09-19T01:31:16.504Z,96389.41
2018-09-19T01:33:45.877Z,96391.17
2018-09-19T01:36:14.637Z,96392.12
2018-09-19T01:38:43.197Z,96382.61
2018-09-19T01:41:11.948Z,96383.42
2018-09-19T01:43:40.507Z,96383.27
2018-09-19T01:46:09.072Z,96388.14
2018-09-19T01:48:37.764Z,96389.91
2018-09-19T01:51:06.347Z,96390.86
2018-09-19T01:53:34.885Z,96390.52
2018-09-19T01:56:03.425Z,96389.69
2018-09-19T01:58:31.959Z,96391.28
2018-09-19T02:01:00.511Z,96391.75
2018-09-19T02:03:29.064Z,96395.48
2018-09-19T02:05:57.732Z,96397.22
2018-09-19T02:08:26.336Z,96400.48
2018-09-19T02:10:54.875Z,96405.78
2018-09-19T02:13:23.412Z,96406.13
2018-09-19T02:15:52.008Z,96400.12
2018-09-19T02:18:20.543Z,96392.63
2018-09-19T02:20:49.131Z,96397.05
2018-09-19T02:23:17.846Z,96400.92
2018-09-19T02:25:46.395Z,96402.22
2018-09-19T02:28:15.025Z,96402.89
2018-09-19T02:30:43.550Z,96404.30
2018-09-19T02:33:12.115Z,96412.23
2018-09-19T02:35:40.720Z,96415.33
2018-09-19T02:38:09.284Z,96408.34
2018-09-19T02:40:37.884Z,96409.91
2018-09-19T02:43:06.454Z,96409.59
2018-09-19T02:45:35.002Z,96417.47
2018-09-19T02:48:03.665Z,96415.09
2018-09-19T02:50:32.249Z,96417.01
2018-09-19T02:53:00.793Z,96422.51
2018-09-19T02:55:29.341Z,96418.11
2018-09-19T02:57:57.952Z,96417.17
2018-09-19T03:00:26.506Z,96413.86
2018-09-19T03:02:55.049Z,96422.61
2018-09-19T03:05:23.598Z,96418.61
2018-09-19T03:07:52.190Z,96416.69
2018-09-19T03:10:20.742Z,96415.05
2018-09-19T03:12:49.329Z,96418.42
2018-09-19T03:15:20.199Z,96421.01
2018-09-19T03:17:48.930Z,96418.21
2018-09-19T03:20:17.413Z,96413.66
2018-09-19T03:22:45.985Z,96413.76
2018-09-19T03:25:14.669Z,96418.31
2018-09-19T03:27:43.217Z,96405.69
2018-09-19T03:30:11.781Z,96415.42
2018-09-19T03:32:40.324Z,96408.47
2018-09-19T03:35:08.908Z,96415.73
2018-09-19T03:37:37.564Z,96412.48
2018-09-19T03:40:06.278Z,96418.83
2018-09-19T03:42:34.828Z,96411.06
2018-09-19T03:45:03.418Z,96420.90
2018-09-19T03:47:31.965Z,96418.31
2018-09-19T03:50:00.591Z,96417.14
2018-09-19T03:52:29.182Z,96424.28
2018-09-19T03:54:57.728Z,96422.31
2018-09-19T03:57:26.331Z,96417.64
2018-09-19T03:59:55.684Z,96416.34
2018-09-19T04:02:24.296Z,96414.91
2018-09-19T04:04:52.847Z,96421.94
2018-09-19T04:07:21.379Z,96425.84
2018-09-19T04:09:49.936Z,96421.01
2018-09-19T04:12:18.560Z,96426.49
2018-09-19T04:14:47.186Z,96426.19
2018-09-19T04:17:15.791Z,96423.91
2018-09-19T04:19:44.332Z,96422.92
2018-09-19T04:22:12.875Z,96424.73
2018-09-19T04:24:41.576Z,96422.45
2018-09-19T04:27:10.144Z,96423.75
2018-09-19T04:29:38.684Z,96423.29
2018-09-19T04:32:07.352Z,96432.88
2018-09-19T04:34:35.915Z,96431.06
2018-09-19T04:37:05.381Z,96426.86
2018-09-19T04:39:33.979Z,96430.95
2018-09-19T04:42:02.585Z,96438.61
2018-09-19T04:44:31.153Z,96441.36
2018-09-19T04:49:50.162Z,96442.34
2018-09-19T04:52:18.929Z,96441.21
2018-09-19T04:54:47.693Z,96451.41
2018-09-19T04:57:16.355Z,96454.20
2018-09-19T04:59:44.920Z,96455.03
2018-09-19T05:02:13.457Z,96462.55
2018-09-19T05:04:41.989Z,96461.17
2018-09-19T05:12:51.852Z,96470.41
2018-09-19T05:15:20.408Z,96483.45
2018-09-19T05:17:48.941Z,96480.90
2018-09-19T05:20:17.529Z,96489.34
2018-09-19T05:22:46.154Z,96488.71
2018-09-19T05:25:14.845Z,96486.98
2018-09-19T05:27:43.401Z,96490.59
2018-09-19T05:30:12.772Z,96491.44
2018-09-19T05:32:42.142Z,96495.05
2018-09-19T05:35:10.832Z,96495.89
2018-09-19T05:37:39.389Z,96502.89
2018-09-19T05:40:07.959Z,96502.75
2018-09-19T05:42:36.501Z,96502.28
2018-09-19T05:45:05.339Z,96505.06
2018-09-19T05:47:33.887Z,96509.11
2018-09-19T05:50:02.484Z,96508.18
2018-09-19T05:52:31.033Z,96505.77
2018-09-19T05:54:59.593Z,96504.17
2018-09-19T05:57:28.539Z,96503.72
2018-09-19T05:59:57.116Z,96505.36
2018-09-19T06:02:25.647Z,96507.02
2018-09-19T06:04:54.289Z,96503.30
2018-09-19T06:07:22.773Z,96509.30
2018-09-19T06:09:51.411Z,96515.83
2018-09-19T06:12:20.006Z,96518.42
2018-09-19T06:14:48.597Z,96519.58
2018-09-19T06:17:18.205Z,96525.74
2018-09-19T06:19:46.772Z,96524.77
2018-09-19T06:22:15.358Z,96532.07
2018-09-19T06:24:43.932Z,96526.59
2018-09-19T06:27:13.656Z,96534.08
2018-09-19T06:29:42.210Z,96529.34
2018-09-19T06:32:10.789Z,96531.14
2018-09-19T06:34:39.526Z,96529.20
2018-09-19T06:37:08.137Z,96531.95
2018-09-19T06:39:36.790Z,96542.50
2018-09-19T06:42:05.328Z,96537.94
2018-09-19T06:44:33.923Z,96541.98
2018-09-19T06:47:02.530Z,96545.08
2018-09-19T06:49:31.217Z,96548.81
2018-09-19T06:51:59.877Z,96551.08
2018-09-19T06:54:28.555Z,96559.36
2018-09-19T06:56:57.180Z,96552.55
2018-09-19T06:59:25.826Z,96555.13
2018-09-19T07:01:54.415Z,96555.47
2018-09-19T07:04:22.972Z,96562.42
2018-09-19T07:06:52.685Z,96567.76
2018-09-19T07:09:21.228Z,96566.42
2018-09-19T07:11:49.790Z,96564.12
2018-09-19T07:14:18.381Z,96566.72
2018-09-19T07:16:46.948Z,96571.58
2018-09-19T07:22:17.974Z,96584.55
2018-09-19T07:24:46.548Z,96592.38
2018-09-19T07:27:15.139Z,96598.89
2018-09-19T07:29:43.689Z,96595.28
2018-09-19T07:32:12.266Z,96595.09
2018-09-19T07:34:40.875Z,96597.48
2018-09-19T07:37:09.462Z,96596.23
2018-09-19T07:39:38.028Z,96590.31
2018-09-19T07:42:06.640Z,96597.61
2018-09-19T07:44:35.188Z,96600.54
2018-09-19T07:47:03.785Z,96598.09
2018-09-19T07:49:32.330Z,96606.24
2018-09-19T07:52:00.899Z,96607.70
2018-09-19T07:54:29.508Z,96599.17
2018-09-19T07:56:58.014Z,96607.47
2018-09-19T07:59:26.767Z,96605.04
2018-09-19T08:01:55.299Z,96609.78
2018-09-19T08:04:23.950Z,96613.09
2018-09-19T08:06:52.524Z,96619.63
2018-09-19T08:09:21.174Z,96622.77
2018-09-19T08:11:49.727Z,96627.97
2018-09-19T08:14:18.261Z,96628.98
2018-09-19T08:16:46.852Z,96637.27
2018-09-19T08:19:15.456Z,96642.09
2018-09-19T08:21:44.020Z,96643.08
2018-09-19T08:24:12.546Z,96642.42
2018-09-19T08:26:41.084Z,96653.84
2018-09-19T08:29:09.726Z,96649.58
2018-09-19T08:31:38.318Z,96653.80
2018-09-19T08:34:06.881Z,96656.05
2018-09-19T08:36:35.436Z,96650.96
2018-09-19T08:39:06.170Z,96653.74
2018-09-19T08:41:34.818Z,96650.70
2018-09-19T08:44:03.377Z,96644.80
2018-09-19T08:46:32.008Z,96644.12
2018-09-19T08:49:00.559Z,96644.89
2018-09-19T08:51:29.103Z,96642.23
2018-09-19T08:53:57.652Z,96643.52
2018-09-19T08:56:26.204Z,96641.52
2018-09-19T08:58:55.163Z,96647.55
2018-09-19T09:01:23.712Z,96645.06
2018-09-19T09:03:52.293Z,96644.10
2018-09-19T09:06:20.821Z,96643.39
2018-09-19T09:08:49.360Z,96644.48
2018-09-19T09:11:18.075Z,96645.54
2018-09-19T09:13:46.690Z,96649.09
2018-09-19T09:16:15.302Z,96654.63
2018-09-19T09:18:43.973Z,96651.18
2018-09-19T09:21:12.639Z,96653.56
2018-09-19T09:23:42.106Z,96650.59
2018-09-19T09:26:13.995Z,96654.87
2018-09-19T09:28:42.507Z,96650.21
2018-09-19T09:31:11.374Z,96653.02
2018-09-19T09:33:39.941Z,96642.91
2018-09-19T09:36:08.513Z,96646.80
2018-09-19T09:38:37.081Z,96646.39
2018-09-19T09:41:05.771Z,96639.33
2018-09-19T09:43:34.373Z,96643.00
2018-09-19T09:46:02.947Z,96633.00
2018-09-19T09:48:31.541Z,96644.13
2018-09-19T09:51:00.166Z,96638.50
2018-09-19T09:53:28.893Z,96627.34
2018-09-19T09:55:57.691Z,96623.02
2018-09-19T09:58:26.272Z,96622.47
2018-09-19T10:00:55.127Z,96615.04
2018-09-19T10:03:23.639Z,96624.04
2018-09-19T10:05:52.192Z,96620.81
2018-09-19T10:08:20.748Z,96613.70
2018-09-19T10:10:49.663Z,96616.14
2018-09-19T10:13:18.326Z,96613.28
2018-09-19T10:15:46.864Z,96610.58
2018-09-19T10:18:15.392Z,96605.73
2018-09-19T10:20:43.990Z,96611.53
2018-09-19T10:23:12.633Z,96605.14
2018-09-19T10:25:41.408Z,96596.05
2018-09-19T10:28:09.929Z,96599.33
2018-09-19T10:30:38.502Z,96598.23
2018-09-19T10:33:07.333Z,96598.62
2018-09-19T10:35:36.016Z,96601.56
2018-09-19T10:38:04.588Z,96596.43
2018-09-19T10:40:33.160Z,96593.79
2018-09-19T10:43:01.728Z,96588.07
2018-09-19T10:45:30.331Z,96590.16
2018-09-19T10:47:58.864Z,96591.16
2018-09-19T10:50:27.490Z,96580.98
2018-09-19T10:52:56.047Z,96583.45
2018-09-19T10:55:25.321Z,96580.32
2018-09-19T10:57:53.890Z,96583.33
2018-09-19T11:00:22.465Z,96574.34
2018-09-19T11:02:51.030Z,96575.77
2018-09-19T11:05:19.781Z,96582.34
2018-09-19T11:07:48.352Z,96569.39
2018-09-19T11:10:16.898Z,96579.95
2018-09-19T11:12:45.476Z,96568.66
2018-09-19T11:15:14.190Z,96571.25
2018-09-19T11:17:42.798Z,96568.98
2018-09-19T11:20:11.355Z,96572.80
2018-09-19T11:22:39.926Z,96581.26
2018-09-19T11:25:08.532Z,96570.20
2018-09-19T11:27:37.082Z,96569.47
2018-09-19T11:30:06.192Z,96562.92
2018-09-19T11:32:34.787Z,96562.41
2018-09-19T11:35:03.437Z,96566.14
2018-09-19T11:37:32.150Z,96565.42
2018-09-19T11:40:00.712Z,96561.09
2018-09-19T11:45:19.988Z,96565.78
2018-09-19T11:47:48.516Z,96559.27
2018-09-19T11:50:17.100Z,96561.08
2018-09-19T11:52:45.658Z,96562.87
2018-09-19T11:55:15.381Z,96553.34
2018-09-19T11:57:44.106Z,96557.48
2018-09-19T12:00:13.061Z,96548.18
2018-09-19T12:02:41.668Z,96550.83
2018-09-19T12:05:11.061Z,96550.30
2018-09-19T12:07:39.928Z,96540.34
2018-09-19T12:10:08.607Z,96545.40
2018-09-19T12:12:38.090Z,96536.41
2018-09-19T12:15:06.997Z,96542.63
2018-09-19T12:17:35.841Z,96544.50
2018-09-19T12:20:04.512Z,96544.50
2018-09-19T12:22:33.265Z,96536.92
2018-09-19T12:25:01.845Z,96543.06
2018-09-19T12:27:30.392Z,96540.52
2018-09-19T12:29:58.976Z,96539.45
2018-09-19T12:32:27.947Z,96540.37
2018-09-19T12:34:56.556Z,96546.02
2018-09-19T12:37:25.322Z,96532.58
2018-09-19T12:39:53.924Z,96536.84
2018-09-19T12:42:22.472Z,96535.98
2018-09-19T12:44:51.000Z,96537.89
2018-09-19T12:47:19.998Z,96538.94
2018-09-19T12:49:48.903Z,96534.41
2018-09-19T12:52:17.440Z,96534.46
2018-09-19T12:54:46.023Z,96535.48
2018-09-19T12:57:14.751Z,96538.24
2018-09-19T12:59:43.336Z,96536.19
2018-09-19T13:02:11.938Z,96533.98
2018-09-19T13:04:40.473Z,96535.78
2018-09-19T13:07:09.083Z,96541.04
2018-09-19T13:09:37.738Z,96534.34
2018-09-19T13:12:06.315Z,96536.36
2018-09-19T13:14:34.884Z,96533.11
2018-09-19T13:17:03.480Z,96536.66
2018-09-19T13:19:32.080Z,96531.56
2018-09-19T13:22:00.657Z,96533.33
2018-09-19T13:24:29.180Z,96530.03
2018-09-19T13:26:57.750Z,96528.63
2018-09-19T13:29:26.412Z,96531.47
2018-09-19T13:31:55.258Z,96543.04
2018-09-19T13:34:23.873Z,96540.66
2018-09-19T13:36:52.508Z,96530.53
2018-09-19T13:39:21.080Z,96535.08
2018-09-19T13:41:49.648Z,96532.92
2018-09-19T13:44:18.420Z,96535.08
2018-09-19T13:46:47.028Z,96543.08
2018-09-19T13:49:34.502Z,96548.95
2018-09-19T13:52:03.061Z,96541.92
2018-09-19T13:54:31.645Z,96551.36
2018-09-19T13:57:00.255Z,96540.61
2018-09-19T13:59:28.844Z,96536.77
2018-09-19T14:01:58.404Z,96545.95
2018-09-19T14:04:27.011Z,96555.09
2018-09-19T14:06:55.731Z,96545.67
2018-09-19T14:09:24.301Z,96552.02
2018-09-19T14:11:52.978Z,96545.05
2018-09-19T14:14:21.549Z,96543.89
2018-09-19T14:16:50.311Z,96541.82
2018-09-19T14:19:19.024Z,96548.61
2018-09-19T14:21:47.795Z,96550.04
2018-09-19T14:24:16.756Z,96549.89
2018-09-19T14:26:45.499Z,96549.55
2018-09-19T14:29:14.143Z,96550.42
2018-09-19T14:31:42.747Z,96552.28
2018-09-19T14:34:11.377Z,96556.28
2018-09-19T14:36:39.937Z,96564.06
2018-09-19T14:39:08.957Z,96564.91
2018-09-19T14:41:37.591Z,96568.07
2018-09-19T14:44:06.221Z,96567.20
2018-09-19T14:46:34.790Z,96568.64
2018-09-19T14:49:03.538Z,96569.03
2018-09-19T14:51:32.113Z,96567.09
2018-09-19T14:54:00.760Z,96559.16
2018-09-19T14:56:29.615Z,96560.25
2018-09-19T14:58:58.157Z,96553.00
2018-09-19T15:01:26.721Z,96549.76
2018-09-19T15:03:55.316Z,96539.98
2018-09-19T15:06:23.918Z,96538.48
2018-09-19T15:08:52.497Z,96538.86
2018-09-19T15:11:21.140Z,96538.95
2018-09-19T15:13:49.724Z,96539.20
2018-09-19T15:16:18.329Z,96547.31
2018-09-19T15:18:46.986Z,96552.81
2018-09-19T15:21:15.629Z,96549.59
2018-09-19T15:23:44.229Z,96541.33
2018-09-19T15:26:12.860Z,96544.25
2018-09-19T15:28:41.479Z,96535.31
2018-09-19T15:31:10.075Z,96536.80
2018-09-19T15:33:38.649Z,96530.89
2018-09-19T15:36:07.348Z,96531.46
2018-09-19T15:38:36.028Z,96526.30
2018-09-19T15:41:04.644Z,96533.13
2018-09-19T15:43:33.203Z,96534.42
2018-09-19T15:46:01.812Z,96542.16
2018-09-19T15:48:30.352Z,96533.63
2018-09-19T15:50:58.960Z,96545.12
2018-09-19T15:53:30.931Z,96539.23
2018-09-19T15:56:00.549Z,96537.67
2018-09-19T15:58:29.108Z,96539.44
2018-09-19T16:00:57.646Z,96538.06
2018-09-19T16:03:27.796Z,96539.59
2018-09-19T16:05:56.559Z,96541.47
2018-09-19T16:08:25.136Z,96540.52
2018-09-19T16:10:53.855Z,96541.52
2018-09-19T16:13:22.527Z,96534.88
2018-09-19T16:15:51.104Z,96539.93
